createdAt,value
2019-05-12T00:00:40.886Z,94.20
2019-05-12T00:01:41.116Z,94.65
2019-05-12T00:02:41.331Z,94.76
2019-05-12T00:03:41.529Z,94.34
2019-05-12T00:04:41.711Z,94.76
2019-05-12T00:05:41.896Z,95.38
2019-05-12T00:06:42.082Z,96.31
2019-05-12T00:07:42.299Z,97.04
2019-05-12T00:08:42.509Z,96.62
2019-05-12T00:09:42.731Z,96.83
2019-05-12T00:10:42.942Z,96.62
2019-05-12T00:11:43.129Z,96.73
2019-05-12T00:12:43.294Z,95.90
2019-05-12T00:13:43.529Z,95.96
2019-05-12T00:14:43.686Z,96.17
2019-05-12T00:15:43.868Z,96.06
2019-05-12T00:16:44.032Z,96.02
2019-05-12T00:17:44.160Z,95.96
2019-05-12T00:18:44.342Z,96.17
2019-05-12T00:19:44.504Z,95.40
2019-05-12T00:20:44.657Z,95.40
2019-05-12T00:21:44.823Z,95.92
2019-05-12T00:22:44.982Z,96.12
2019-05-12T00:23:47.180Z,95.54
2019-05-12T00:24:47.760Z,95.92
2019-05-12T00:25:45.425Z,95.81
2019-05-12T00:26:47.629Z,95.81
2019-05-12T00:27:48.273Z,95.71
2019-05-12T00:28:47.817Z,95.09
2019-05-12T00:29:48.393Z,94.88
2019-05-12T00:30:48.596Z,95.29
2019-05-12T00:31:47.774Z,95.04
2019-05-12T00:32:47.885Z,96.12
2019-05-12T00:33:48.107Z,95.50
2019-05-12T00:34:48.065Z,95.81
2019-05-12T00:35:48.463Z,96.02
2019-05-12T00:36:48.695Z,95.67
2019-05-12T00:37:48.723Z,95.98
2019-05-12T00:38:48.882Z,96.08
2019-05-12T00:39:48.175Z,95.87
2019-05-12T00:40:48.205Z,95.67
2019-05-12T00:41:48.397Z,95.87
2019-05-12T00:42:48.591Z,95.77
2019-05-12T00:43:49.770Z,95.15
2019-05-12T00:44:48.912Z,95.81
2019-05-12T00:45:49.108Z,95.98
2019-05-12T00:46:49.271Z,95.36
2019-05-12T00:47:49.433Z,95.67
2019-05-12T00:48:49.610Z,94.53
2019-05-12T00:49:50.397Z,94.94
2019-05-12T00:50:50.969Z,94.32
2019-05-12T00:51:50.102Z,94.89
2019-05-12T00:52:50.282Z,95.67
2019-05-12T00:53:50.451Z,95.36
2019-05-12T00:54:50.629Z,95.93
2019-05-12T00:55:50.821Z,96.14
2019-05-12T00:56:51.000Z,94.58
2019-05-12T00:57:51.164Z,94.89
2019-05-12T00:58:51.313Z,95.93
2019-05-12T00:59:52.495Z,95.51
2019-05-12T01:00:51.643Z,95.51
2019-05-12T01:01:51.865Z,93.60
2019-05-12T01:02:52.055Z,92.93
2019-05-12T01:03:52.263Z,93.81
2019-05-12T01:04:52.435Z,92.57
2019-05-12T01:05:52.631Z,92.47
2019-05-12T01:06:52.876Z,92.78
2019-05-12T01:07:53.083Z,93.71
2019-05-12T01:08:53.286Z,93.77
2019-05-12T01:09:53.469Z,93.98
2019-05-12T01:10:53.638Z,93.25
2019-05-12T01:11:53.877Z,93.04
2019-05-12T01:12:54.044Z,91.86
2019-05-12T01:13:54.230Z,92.38
2019-05-12T01:14:54.368Z,91.76
2019-05-12T01:15:55.532Z,91.76
2019-05-12T01:16:54.689Z,90.83
2019-05-12T01:17:54.889Z,89.58
2019-05-12T01:18:55.050Z,89.38
2019-05-12T01:19:55.230Z,88.09
2019-05-12T01:20:55.422Z,87.88
2019-05-12T01:21:55.597Z,89.65
2019-05-12T01:22:57.907Z,87.57
2019-05-12T01:24:00.522Z,87.57
2019-05-12T01:24:58.043Z,87.68
2019-05-12T01:25:58.586Z,88.92
2019-05-12T01:26:58.218Z,87.37
2019-05-12T01:27:58.909Z,86.85
2019-05-12T01:28:58.102Z,86.44
2019-05-12T01:29:58.126Z,86.96
2019-05-12T01:30:58.273Z,88.20
2019-05-12T01:31:58.621Z,86.91
2019-05-12T01:32:58.602Z,86.60
2019-05-12T01:33:58.560Z,87.68
2019-05-12T01:34:58.775Z,88.26
2019-05-12T01:35:58.623Z,87.57
2019-05-12T01:36:59.103Z,88.92
2019-05-12T01:38:01.347Z,90.53
2019-05-12T01:39:01.885Z,89.29
2019-05-12T01:40:00.072Z,87.74
2019-05-12T01:40:59.732Z,86.91
2019-05-12T01:41:58.856Z,87.54
2019-05-12T01:42:59.002Z,87.23
2019-05-12T01:43:59.157Z,87.43
2019-05-12T01:44:59.303Z,86.50
2019-05-12T01:45:59.436Z,87.12
2019-05-12T01:46:59.582Z,87.57
2019-05-12T01:47:59.724Z,86.71
2019-05-12T01:48:59.888Z,87.43
2019-05-12T01:50:00.024Z,86.65
2019-05-12T01:51:00.151Z,87.95
2019-05-12T01:52:00.317Z,86.81
2019-05-12T01:53:00.451Z,87.57
2019-05-12T01:54:10.700Z,87.57
2019-05-12T01:55:02.767Z,87.37
2019-05-12T01:56:00.864Z,87.06
2019-05-12T01:57:01.004Z,86.96
2019-05-12T01:58:01.154Z,87.85
2019-05-12T01:59:01.350Z,87.64
2019-05-12T02:00:01.508Z,86.29
2019-05-12T02:01:02.999Z,86.81
2019-05-12T02:02:02.809Z,86.81
2019-05-12T02:03:01.938Z,87.23
2019-05-12T02:04:02.116Z,87.02
2019-05-12T02:05:02.276Z,86.29
2019-05-12T02:06:02.459Z,88.06
2019-05-12T02:07:02.600Z,86.71
2019-05-12T02:08:02.761Z,87.95
2019-05-12T02:09:02.918Z,87.74
2019-05-12T02:10:03.096Z,87.74
2019-05-12T02:11:03.252Z,89.09
2019-05-12T02:12:03.375Z,88.16
2019-05-12T02:13:03.493Z,87.43
2019-05-12T02:14:03.637Z,87.43
2019-05-12T02:15:03.794Z,87.02
2019-05-12T02:16:03.960Z,87.33
2019-05-12T02:17:04.205Z,87.54
2019-05-12T02:18:04.463Z,87.02
2019-05-12T02:19:04.607Z,87.02
2019-05-12T02:20:04.785Z,87.64
2019-05-12T02:21:04.928Z,86.71
2019-05-12T02:22:05.090Z,89.61
2019-05-12T02:23:05.253Z,87.95
2019-05-12T02:24:07.591Z,87.91
2019-05-12T02:25:07.945Z,87.70
2019-05-12T02:26:08.093Z,86.77
2019-05-12T02:27:08.170Z,86.88
2019-05-12T02:28:06.028Z,87.70
2019-05-12T02:29:07.862Z,86.46
2019-05-12T02:30:09.881Z,87.39
2019-05-12T02:31:09.263Z,87.29
2019-05-12T02:32:06.772Z,86.67
2019-05-12T02:33:06.957Z,88.94
2019-05-12T02:34:07.118Z,87.81
2019-05-12T02:35:07.277Z,86.57
2019-05-12T02:36:07.411Z,85.42
2019-05-12T02:37:07.609Z,86.88
2019-05-12T02:38:07.740Z,86.88
2019-05-12T02:39:07.889Z,87.02
2019-05-12T02:40:08.117Z,87.70
2019-05-12T02:41:08.269Z,87.91
2019-05-12T02:42:08.442Z,86.88
2019-05-12T02:43:08.610Z,87.29
2019-05-12T02:44:08.773Z,87.39
2019-05-12T02:45:08.918Z,86.67
2019-05-12T02:46:09.092Z,87.39
2019-05-12T02:47:09.250Z,86.57
2019-05-12T02:48:09.416Z,88.94
2019-05-12T02:49:09.590Z,88.43
2019-05-12T02:50:09.729Z,87.70
2019-05-12T02:51:09.912Z,87.85
2019-05-12T02:52:10.058Z,87.64
2019-05-12T02:53:14.229Z,87.54
2019-05-12T02:54:10.433Z,88.57
2019-05-12T02:55:10.602Z,88.12
2019-05-12T02:56:10.821Z,87.85
2019-05-12T02:57:10.973Z,88.98
2019-05-12T02:58:11.133Z,89.50
2019-05-12T02:59:11.304Z,90.53
2019-05-12T03:00:11.476Z,89.92
2019-05-12T03:01:11.655Z,88.46
2019-05-12T03:02:14.162Z,89.67
2019-05-12T03:03:14.765Z,90.80
2019-05-12T03:04:14.490Z,90.23
2019-05-12T03:05:14.856Z,91.47
2019-05-12T03:06:15.119Z,91.78
2019-05-12T03:07:15.366Z,90.44
2019-05-12T03:08:15.357Z,90.64
2019-05-12T03:09:15.095Z,90.33
2019-05-12T03:10:14.669Z,90.12
2019-05-12T03:11:14.901Z,89.40
2019-05-12T03:12:14.696Z,88.46
2019-05-12T03:13:14.975Z,89.29
2019-05-12T03:14:15.618Z,88.16
2019-05-12T03:15:15.410Z,88.61
2019-05-12T03:16:15.166Z,90.12
2019-05-12T03:17:15.651Z,89.29
2019-05-12T03:18:14.896Z,89.50
2019-05-12T03:19:15.287Z,89.40
2019-05-12T03:20:16.098Z,90.23
2019-05-12T03:21:15.471Z,90.44
2019-05-12T03:22:16.438Z,90.53
2019-05-12T03:23:19.341Z,90.95
2019-05-12T03:24:17.578Z,89.61
2019-05-12T03:25:24.769Z,87.43
2019-05-12T03:26:18.179Z,88.78
2019-05-12T03:27:17.702Z,89.50
2019-05-12T03:28:17.515Z,88.67
2019-05-12T03:29:16.643Z,87.64
2019-05-12T03:30:19.496Z,88.26
2019-05-12T03:31:23.620Z,88.57
2019-05-12T03:32:19.200Z,89.19
2019-05-12T03:33:19.436Z,89.19
2019-05-12T03:34:20.066Z,89.29
2019-05-12T03:35:18.703Z,89.50
2019-05-12T03:36:18.622Z,87.33
2019-05-12T03:37:18.636Z,88.16
2019-05-12T03:38:19.317Z,89.09
2019-05-12T03:39:18.467Z,88.26
2019-05-12T03:40:18.635Z,89.81
2019-05-12T03:41:18.776Z,90.12
2019-05-12T03:42:18.937Z,87.85
2019-05-12T03:43:19.180Z,87.54
2019-05-12T03:44:19.388Z,87.95
2019-05-12T03:45:19.557Z,88.16
2019-05-12T03:46:19.706Z,87.95
2019-05-12T03:47:19.857Z,87.88
2019-05-12T03:48:20.073Z,88.67
2019-05-12T03:49:20.285Z,88.20
2019-05-12T03:50:20.423Z,88.09
2019-05-12T03:51:20.595Z,88.61
2019-05-12T03:52:24.385Z,87.78
2019-05-12T03:53:24.792Z,88.09
2019-05-12T03:54:24.453Z,89.75
2019-05-12T03:55:31.792Z,89.75
2019-05-12T03:56:25.851Z,89.65
2019-05-12T03:57:21.658Z,89.34
2019-05-12T03:58:21.830Z,88.61
2019-05-12T03:59:25.343Z,89.34
2019-05-12T04:00:24.758Z,89.65
2019-05-12T04:01:25.557Z,89.54
2019-05-12T04:02:24.969Z,90.26
2019-05-12T04:03:24.727Z,88.71
2019-05-12T04:04:24.539Z,89.03
2019-05-12T04:05:24.508Z,89.75
2019-05-12T04:06:24.735Z,89.65
2019-05-12T04:07:24.542Z,89.29
2019-05-12T04:08:24.633Z,89.09
2019-05-12T04:09:24.803Z,90.64
2019-05-12T04:10:24.782Z,89.40
2019-05-12T04:11:25.235Z,88.98
2019-05-12T04:12:25.532Z,88.16
2019-05-12T04:13:26.540Z,89.40
2019-05-12T04:14:25.583Z,89.92
2019-05-12T04:15:25.582Z,87.64
2019-05-12T04:16:26.051Z,88.78
2019-05-12T04:17:25.207Z,87.91
2019-05-12T04:18:25.365Z,88.26
2019-05-12T04:19:25.526Z,87.64
2019-05-12T04:20:25.764Z,87.91
2019-05-12T04:21:25.819Z,87.49
2019-05-12T04:22:26.006Z,87.12
2019-05-12T04:23:26.164Z,89.46
2019-05-12T04:24:26.332Z,86.88
2019-05-12T04:25:44.729Z,86.98
2019-05-12T04:26:27.786Z,87.81
2019-05-12T04:27:26.956Z,87.60
2019-05-12T04:28:27.126Z,87.29
2019-05-12T04:29:27.311Z,86.88
2019-05-12T04:30:27.458Z,86.05
2019-05-12T04:31:27.608Z,86.42
2019-05-12T04:32:27.743Z,86.77
2019-05-12T04:33:28.896Z,86.67
2019-05-12T04:34:28.140Z,87.60
2019-05-12T04:35:29.283Z,87.49
2019-05-12T04:36:28.423Z,87.18
2019-05-12T04:37:28.601Z,87.49
2019-05-12T04:38:28.723Z,87.46
2019-05-12T04:39:28.863Z,86.83
2019-05-12T04:40:29.005Z,86.98
2019-05-12T04:41:29.146Z,86.88
2019-05-12T04:42:29.290Z,86.57
2019-05-12T04:43:29.427Z,88.28
2019-05-12T04:44:29.565Z,87.29
2019-05-12T04:45:29.762Z,87.60
2019-05-12T04:46:29.915Z,86.46
2019-05-12T04:47:30.087Z,86.67
2019-05-12T04:48:30.264Z,87.29
2019-05-12T04:49:30.427Z,87.60
2019-05-12T04:50:30.594Z,88.43
2019-05-12T04:51:30.780Z,87.91
2019-05-12T04:52:30.961Z,88.01
2019-05-12T04:53:31.117Z,87.70
2019-05-12T04:54:31.310Z,87.49
2019-05-12T04:55:31.486Z,87.81
2019-05-12T04:56:35.403Z,87.18
2019-05-12T04:57:34.692Z,87.29
2019-05-12T04:58:35.031Z,88.43
2019-05-12T04:59:34.491Z,87.29
2019-05-12T05:00:34.825Z,87.97
2019-05-12T05:01:34.625Z,87.49
2019-05-12T05:02:36.504Z,87.46
2019-05-12T05:03:34.971Z,86.63
2019-05-12T05:04:34.771Z,87.97
2019-05-12T05:05:35.610Z,87.62
2019-05-12T05:06:34.651Z,85.76
2019-05-12T05:07:35.965Z,85.35
2019-05-12T05:08:35.083Z,86.28
2019-05-12T05:09:34.980Z,86.38
2019-05-12T05:10:35.324Z,85.83
2019-05-12T05:11:34.682Z,84.21
2019-05-12T05:12:35.660Z,84.79
2019-05-12T05:13:38.815Z,84.07
2019-05-12T05:14:36.074Z,83.97
2019-05-12T05:15:35.543Z,84.07
2019-05-12T05:16:35.448Z,84.89
2019-05-12T05:17:35.600Z,84.07
2019-05-12T05:18:35.784Z,83.97
2019-05-12T05:19:35.948Z,84.17
2019-05-12T05:20:36.150Z,83.25
2019-05-12T05:21:36.328Z,85.62
2019-05-12T05:22:38.197Z,84.48
2019-05-12T05:23:37.686Z,82.31
2019-05-12T05:24:36.813Z,83.55
2019-05-12T05:25:36.982Z,82.73
2019-05-12T05:26:37.511Z,82.21
2019-05-12T05:27:38.368Z,84.17
2019-05-12T05:28:37.601Z,82.52
2019-05-12T05:29:37.750Z,84.38
2019-05-12T05:30:37.917Z,82.48
2019-05-12T05:31:38.076Z,82.14
2019-05-12T05:32:38.230Z,83.17
2019-05-12T05:33:38.385Z,82.14
2019-05-12T05:34:38.530Z,80.69
2019-05-12T05:35:39.813Z,82.38
2019-05-12T05:36:39.907Z,81.10
2019-05-12T05:37:41.471Z,81.72
2019-05-12T05:38:40.213Z,81.41
2019-05-12T05:39:47.601Z,82.20
2019-05-12T05:40:43.381Z,81.48
2019-05-12T05:41:48.884Z,80.55
2019-05-12T05:42:43.899Z,80.86
2019-05-12T05:43:40.107Z,81.99
2019-05-12T05:44:40.263Z,80.76
2019-05-12T05:45:40.407Z,80.44
2019-05-12T05:46:47.708Z,81.65
2019-05-12T05:47:44.230Z,81.61
2019-05-12T05:48:40.905Z,79.34
2019-05-12T05:49:43.322Z,78.97
2019-05-12T05:50:43.705Z,80.10
2019-05-12T05:51:46.667Z,81.40
2019-05-12T05:52:43.887Z,81.40
2019-05-12T05:53:44.028Z,81.23
2019-05-12T05:54:43.887Z,81.92
2019-05-12T05:55:44.098Z,79.44
2019-05-12T05:56:48.458Z,80.33
2019-05-12T05:57:44.565Z,79.82
2019-05-12T05:58:47.103Z,81.16
2019-05-12T05:59:44.859Z,80.54
2019-05-12T06:00:44.058Z,80.13
2019-05-12T06:01:47.002Z,81.05
2019-05-12T06:02:45.528Z,79.51
2019-05-12T06:03:44.744Z,80.40
2019-05-12T06:04:45.431Z,78.72
2019-05-12T06:05:46.194Z,80.89
2019-05-12T06:06:50.899Z,80.95
2019-05-12T06:07:46.665Z,80.61
2019-05-12T06:08:44.773Z,78.86
2019-05-12T06:09:44.897Z,78.69
2019-05-12T06:10:45.027Z,78.96
2019-05-12T06:11:45.178Z,79.06
2019-05-12T06:12:50.527Z,77.62
2019-05-12T06:13:47.485Z,76.49
2019-05-12T06:14:46.702Z,78.48
2019-05-12T06:15:47.836Z,76.21
2019-05-12T06:16:46.075Z,76.73
2019-05-12T06:17:46.301Z,77.31
2019-05-12T06:18:46.477Z,76.79
2019-05-12T06:19:46.685Z,76.79
2019-05-12T06:20:46.861Z,78.03
2019-05-12T06:21:47.001Z,75.46
2019-05-12T06:22:48.526Z,77.00
2019-05-12T06:23:49.275Z,76.28
2019-05-12T06:24:49.112Z,76.45
2019-05-12T06:25:51.595Z,76.35
2019-05-12T06:26:57.678Z,74.26
2019-05-12T06:27:51.185Z,73.33
2019-05-12T06:28:50.138Z,73.23
2019-05-12T06:29:54.461Z,72.72
2019-05-12T06:30:50.156Z,73.44
2019-05-12T06:31:49.619Z,72.99
2019-05-12T06:32:51.780Z,71.96
2019-05-12T06:33:49.970Z,71.45
2019-05-12T06:34:50.877Z,71.89
2019-05-12T06:35:51.309Z,73.61
2019-05-12T06:36:49.463Z,75.25
2019-05-12T06:37:57.731Z,73.09
2019-05-12T06:38:53.970Z,73.19
2019-05-12T06:39:50.971Z,72.06
2019-05-12T06:40:54.336Z,71.86
2019-05-12T06:41:50.399Z,71.34
2019-05-12T06:42:54.171Z,71.04
2019-05-12T06:43:54.121Z,70.83
2019-05-12T06:44:54.897Z,71.66
2019-05-12T06:45:54.459Z,69.49
2019-05-12T06:46:53.402Z,71.75
2019-05-12T06:47:56.042Z,71.28
2019-05-12T06:48:54.363Z,73.23
2019-05-12T06:49:56.467Z,71.45
2019-05-12T06:50:53.762Z,69.70
2019-05-12T06:52:01.289Z,68.96
2019-05-12T06:52:53.188Z,67.03
2019-05-12T06:53:53.450Z,69.29
2019-05-12T06:54:56.627Z,67.58
2019-05-12T06:55:54.107Z,66.86
2019-05-12T06:56:57.823Z,68.30
2019-05-12T06:57:55.176Z,68.37
2019-05-12T06:58:53.571Z,69.26
2019-05-12T06:59:55.189Z,68.34
2019-05-12T07:00:54.862Z,67.03
2019-05-12T07:01:56.112Z,65.19
2019-05-12T07:02:56.255Z,68.57
2019-05-12T07:03:55.360Z,66.52
2019-05-12T07:04:59.390Z,68.19
2019-05-12T07:05:56.768Z,68.10
2019-05-12T07:07:00.236Z,67.27
2019-05-12T07:07:57.045Z,65.83
2019-05-12T07:09:03.538Z,67.27
2019-05-12T07:10:10.376Z,68.61
2019-05-12T07:11:01.723Z,67.89
2019-05-12T07:12:02.717Z,67.48
2019-05-12T07:13:01.692Z,67.76
2019-05-12T07:14:04.475Z,67.93
2019-05-12T07:14:58.877Z,65.29
2019-05-12T07:15:57.407Z,67.21
2019-05-12T07:17:01.571Z,66.70
2019-05-12T07:17:58.673Z,64.10
2019-05-12T07:18:56.905Z,64.82
2019-05-12T07:19:58.404Z,65.95
2019-05-12T07:20:58.262Z,69.81
2019-05-12T07:22:00.084Z,66.91
2019-05-12T07:22:58.589Z,66.37
2019-05-12T07:24:00.422Z,67.67
2019-05-12T07:24:59.989Z,65.90
2019-05-12T07:25:58.136Z,64.95
2019-05-12T07:27:04.149Z,61.43
2019-05-12T07:28:04.175Z,61.48
2019-05-12T07:29:00.627Z,61.33
2019-05-12T07:29:58.755Z,60.17
2019-05-12T07:30:58.947Z,60.69
2019-05-12T07:31:59.124Z,59.97
2019-05-12T07:33:01.160Z,61.13
2019-05-12T07:34:04.237Z,61.41
2019-05-12T07:35:00.677Z,62.19
2019-05-12T07:36:01.305Z,62.92
2019-05-12T07:37:00.937Z,65.34
2019-05-12T07:38:00.336Z,59.92
2019-05-12T07:39:04.154Z,59.53
2019-05-12T07:40:04.629Z,60.69
2019-05-12T07:41:05.595Z,60.79
2019-05-12T07:42:03.632Z,58.77
2019-05-12T07:43:00.995Z,60.00
2019-05-12T07:44:03.424Z,59.11
2019-05-12T07:45:03.769Z,60.23
2019-05-12T07:46:06.693Z,59.92
2019-05-12T07:47:03.807Z,59.69
2019-05-12T07:48:08.107Z,59.80
2019-05-12T07:49:04.086Z,58.97
2019-05-12T07:50:04.483Z,61.71
2019-05-12T07:51:04.193Z,61.48
2019-05-12T07:52:03.746Z,57.28
2019-05-12T07:53:04.319Z,59.61
2019-05-12T07:54:04.143Z,56.95
2019-05-12T07:55:04.381Z,59.07
2019-05-12T07:56:04.309Z,60.55
2019-05-12T07:57:11.464Z,58.78
2019-05-12T07:58:13.673Z,55.99
2019-05-12T07:59:05.771Z,55.99
2019-05-12T08:00:03.888Z,54.13
2019-05-12T08:01:07.143Z,52.60
2019-05-12T08:02:05.201Z,54.00
2019-05-12T08:03:14.360Z,53.27
2019-05-12T08:04:06.504Z,52.32
2019-05-12T08:05:04.618Z,53.70
2019-05-12T08:06:04.831Z,53.21
2019-05-12T08:07:05.000Z,54.77
2019-05-12T08:08:09.573Z,55.62
2019-05-12T08:09:07.355Z,56.66
2019-05-12T08:10:07.168Z,58.63
2019-05-12T08:11:07.641Z,57.92
2019-05-12T08:12:09.584Z,57.71
2019-05-12T08:13:07.991Z,58.22
2019-05-12T08:14:06.202Z,59.25
2019-05-12T08:15:09.607Z,57.68
2019-05-12T08:16:07.538Z,57.64
2019-05-12T08:17:11.025Z,61.63
2019-05-12T08:18:08.862Z,61.52
2019-05-12T08:19:08.601Z,58.97
2019-05-12T08:20:08.321Z,60.02
2019-05-12T08:21:07.538Z,59.09
2019-05-12T08:22:07.604Z,60.42
2019-05-12T08:23:10.308Z,60.42
2019-05-12T08:24:09.019Z,61.38
2019-05-12T08:25:08.211Z,60.86
2019-05-12T08:26:11.974Z,60.86
2019-05-12T08:27:10.599Z,60.56
2019-05-12T08:28:16.245Z,61.18
2019-05-12T08:29:17.054Z,63.60
2019-05-12T08:30:13.638Z,60.11
2019-05-12T08:31:09.345Z,57.27
2019-05-12T08:32:10.013Z,56.68
2019-05-12T08:33:11.647Z,55.15
2019-05-12T08:34:09.800Z,54.18
2019-05-12T08:35:10.104Z,56.12
2019-05-12T08:36:11.713Z,57.60
2019-05-12T08:37:13.820Z,55.94
2019-05-12T08:38:10.592Z,59.91
2019-05-12T08:39:11.954Z,60.75
2019-05-12T08:40:15.390Z,61.57
2019-05-12T08:41:11.075Z,61.29
2019-05-12T08:42:11.288Z,60.40
2019-05-12T08:43:11.503Z,62.17
2019-05-12T08:44:13.537Z,64.35
2019-05-12T08:45:15.276Z,64.04
2019-05-12T08:46:15.724Z,63.94
2019-05-12T08:47:15.033Z,62.12
2019-05-12T08:48:17.009Z,64.61
2019-05-12T08:49:14.623Z,63.49
2019-05-12T08:50:13.877Z,63.79
2019-05-12T08:51:14.547Z,62.27
2019-05-12T08:52:14.278Z,61.54
2019-05-12T08:53:20.350Z,60.44
2019-05-12T08:54:15.437Z,55.18
2019-05-12T08:55:16.366Z,55.33
2019-05-12T08:56:19.236Z,54.28
2019-05-12T08:57:16.015Z,52.40
2019-05-12T08:58:29.605Z,53.32
2019-05-12T08:59:18.503Z,51.67
2019-05-12T09:00:15.468Z,49.88
2019-05-12T09:01:14.628Z,52.53
2019-05-12T09:02:14.892Z,53.39
2019-05-12T09:03:14.925Z,52.27
2019-05-12T09:04:18.264Z,52.32
2019-05-12T09:05:16.364Z,54.26
2019-05-12T09:06:19.478Z,58.75
2019-05-12T09:07:16.775Z,56.05
2019-05-12T09:08:15.883Z,58.40
2019-05-12T09:09:16.077Z,58.68
2019-05-12T09:10:16.267Z,56.30
2019-05-12T09:11:16.476Z,57.81
2019-05-12T09:12:16.650Z,56.58
2019-05-12T09:13:16.857Z,57.73
2019-05-12T09:14:17.053Z,57.07
2019-05-12T09:15:17.248Z,59.16
2019-05-12T09:16:17.440Z,60.28
2019-05-12T09:17:17.636Z,58.01
2019-05-12T09:18:19.039Z,57.60
2019-05-12T09:19:23.785Z,59.08
2019-05-12T09:20:20.155Z,57.68
2019-05-12T09:21:18.315Z,59.00
2019-05-12T09:22:20.849Z,57.78
2019-05-12T09:23:19.668Z,57.98
2019-05-12T09:24:21.999Z,59.95
2019-05-12T09:25:23.736Z,57.78
2019-05-12T09:26:26.680Z,57.98
2019-05-12T09:27:20.341Z,58.32
2019-05-12T09:28:19.516Z,58.62
2019-05-12T09:29:19.767Z,58.55
2019-05-12T09:30:19.955Z,58.73
2019-05-12T09:31:25.452Z,60.53
2019-05-12T09:32:23.466Z,63.67
2019-05-12T09:33:21.450Z,57.50
2019-05-12T09:34:23.482Z,58.86
2019-05-12T09:35:23.582Z,59.55
2019-05-12T09:36:21.772Z,56.10
2019-05-12T09:37:24.054Z,57.68
2019-05-12T09:38:23.261Z,57.32
2019-05-12T09:39:23.482Z,57.98
2019-05-12T09:40:24.658Z,55.87
2019-05-12T09:41:23.926Z,54.16
2019-05-12T09:42:25.643Z,54.24
2019-05-12T09:43:24.219Z,57.55
2019-05-12T09:44:26.536Z,55.41
2019-05-12T09:45:24.512Z,53.42
2019-05-12T09:46:23.326Z,53.14
2019-05-12T09:47:27.590Z,51.42
2019-05-12T09:48:24.704Z,54.24
2019-05-12T09:49:31.428Z,53.42
2019-05-12T09:50:25.530Z,52.86
2019-05-12T09:51:23.912Z,52.96
2019-05-12T09:52:27.188Z,54.54
2019-05-12T09:53:25.142Z,56.23
2019-05-12T09:54:27.837Z,55.94
2019-05-12T09:55:26.510Z,58.01
2019-05-12T09:56:24.635Z,58.86
2019-05-12T09:57:24.847Z,58.76
2019-05-12T09:58:27.301Z,52.50
2019-05-12T09:59:26.221Z,53.30
2019-05-12T10:00:30.078Z,52.03
2019-05-12T10:01:29.309Z,49.65
2019-05-12T10:02:27.757Z,46.38
2019-05-12T10:03:25.895Z,49.62
2019-05-12T10:04:26.101Z,52.23
2019-05-12T10:05:30.453Z,51.46
2019-05-12T10:06:27.510Z,52.60
2019-05-12T10:07:26.647Z,54.72
2019-05-12T10:08:29.427Z,52.25
2019-05-12T10:09:29.067Z,49.44
2019-05-12T10:10:29.023Z,48.80
2019-05-12T10:11:29.373Z,50.60
2019-05-12T10:12:29.881Z,51.89
2019-05-12T10:13:30.262Z,54.57
2019-05-12T10:14:28.874Z,51.03
2019-05-12T10:15:28.739Z,50.28
2019-05-12T10:16:29.162Z,51.76
2019-05-12T10:17:30.208Z,55.00
2019-05-12T10:18:29.427Z,54.05
2019-05-12T10:19:28.604Z,52.94
2019-05-12T10:20:29.122Z,47.13
2019-05-12T10:21:30.927Z,44.60
2019-05-12T10:22:29.995Z,49.16
2019-05-12T10:23:31.335Z,44.82
2019-05-12T10:24:34.445Z,46.83
2019-05-12T10:25:33.929Z,48.99
2019-05-12T10:26:30.866Z,43.57
2019-05-12T10:27:31.960Z,43.26
2019-05-12T10:28:31.147Z,42.49
2019-05-12T10:29:32.388Z,44.77
2019-05-12T10:30:30.517Z,48.75
2019-05-12T10:31:35.649Z,46.20
2019-05-12T10:32:34.282Z,48.54
2019-05-12T10:33:31.037Z,49.84
2019-05-12T10:34:36.018Z,49.51
2019-05-12T10:35:35.114Z,50.85
2019-05-12T10:36:33.643Z,49.29
2019-05-12T10:37:31.748Z,50.09
2019-05-12T10:38:34.226Z,51.23
2019-05-12T10:39:33.440Z,50.89
2019-05-12T10:40:33.866Z,52.42
2019-05-12T10:41:34.250Z,52.55
2019-05-12T10:42:33.751Z,53.36
2019-05-12T10:43:34.281Z,54.18
2019-05-12T10:44:39.258Z,52.60
2019-05-12T10:45:35.416Z,50.19
2019-05-12T10:46:33.579Z,49.84
2019-05-12T10:47:34.356Z,46.61
2019-05-12T10:48:34.951Z,46.50
2019-05-12T10:49:34.091Z,44.72
2019-05-12T10:50:34.428Z,43.00
2019-05-12T10:51:34.501Z,44.58
2019-05-12T10:52:38.854Z,44.42
2019-05-12T10:53:34.919Z,40.58
2019-05-12T10:54:35.147Z,40.89
2019-05-12T10:55:35.334Z,41.91
2019-05-12T10:56:35.546Z,38.14
2019-05-12T10:57:35.764Z,39.58
2019-05-12T10:58:36.011Z,40.56
2019-05-12T10:59:38.915Z,40.01
2019-05-12T11:00:38.306Z,42.35
2019-05-12T11:01:38.360Z,42.84
2019-05-12T11:02:38.669Z,45.94
2019-05-12T11:03:36.855Z,45.09
2019-05-12T11:04:40.934Z,48.08
2019-05-12T11:05:38.154Z,47.82
2019-05-12T11:06:39.696Z,49.25
2019-05-12T11:07:39.493Z,51.74
2019-05-12T11:08:41.264Z,50.13
2019-05-12T11:09:39.829Z,47.50
2019-05-12T11:10:37.992Z,48.40
2019-05-12T11:11:42.374Z,46.94
2019-05-12T11:12:40.403Z,44.44
2019-05-12T11:13:40.390Z,40.57
2019-05-12T11:14:40.761Z,38.55
2019-05-12T11:15:39.415Z,38.90
2019-05-12T11:16:42.516Z,39.88
2019-05-12T11:17:40.394Z,40.41
2019-05-12T11:18:40.437Z,41.12
2019-05-12T11:19:40.633Z,42.21
2019-05-12T11:20:41.736Z,43.08
2019-05-12T11:21:40.879Z,42.84
2019-05-12T11:22:40.048Z,46.59
2019-05-12T11:23:40.221Z,46.03
2019-05-12T11:24:44.209Z,50.29
2019-05-12T11:25:40.607Z,46.49
2019-05-12T11:26:43.112Z,46.64
2019-05-12T11:27:40.925Z,48.36
2019-05-12T11:28:41.049Z,49.79
2019-05-12T11:29:46.245Z,48.94
2019-05-12T11:30:43.766Z,48.79
2019-05-12T11:31:44.084Z,51.43
2019-05-12T11:32:44.156Z,50.26
2019-05-12T11:33:43.603Z,47.42
2019-05-12T11:34:43.826Z,49.88
2019-05-12T11:35:43.522Z,49.70
2019-05-12T11:36:43.845Z,46.06
2019-05-12T11:37:43.520Z,42.43
2019-05-12T11:38:44.408Z,44.81
2019-05-12T11:39:46.886Z,42.25
2019-05-12T11:40:43.978Z,40.72
2019-05-12T11:41:44.313Z,38.35
2019-05-12T11:42:48.400Z,38.48
2019-05-12T11:43:45.611Z,37.24
2019-05-12T11:44:44.305Z,38.33
2019-05-12T11:45:44.957Z,41.84
2019-05-12T11:46:44.313Z,46.68
2019-05-12T11:47:45.239Z,45.46
2019-05-12T11:48:46.297Z,45.76
2019-05-12T11:49:46.583Z,44.95
2019-05-12T11:50:47.830Z,46.34
2019-05-12T11:51:46.853Z,47.36
2019-05-12T11:52:45.948Z,48.15
2019-05-12T11:53:46.316Z,51.69
2019-05-12T11:54:47.223Z,49.63
2019-05-12T11:55:47.592Z,46.10
2019-05-12T11:56:49.183Z,44.13
2019-05-12T11:57:46.865Z,39.70
2019-05-12T11:58:47.431Z,40.88
2019-05-12T11:59:59.168Z,38.79
2019-05-12T12:00:48.478Z,36.98
2019-05-12T12:01:49.757Z,38.02
2019-05-12T12:02:47.859Z,38.54
2019-05-12T12:03:46.992Z,38.15
2019-05-12T12:04:47.129Z,38.33
2019-05-12T12:05:47.333Z,35.86
2019-05-12T12:06:47.511Z,38.48
2019-05-12T12:07:51.261Z,39.51
2019-05-12T12:08:49.931Z,37.96
2019-05-12T12:09:49.493Z,40.73
2019-05-12T12:10:50.159Z,43.10
2019-05-12T12:11:56.731Z,41.63
2019-05-12T12:12:49.538Z,39.95
2019-05-12T12:13:49.649Z,43.16
2019-05-12T12:14:50.299Z,38.56
2019-05-12T12:15:50.016Z,40.11
2019-05-12T12:16:50.451Z,40.78
2019-05-12T12:17:50.317Z,40.30
2019-05-12T12:18:56.100Z,42.35
2019-05-12T12:19:54.270Z,46.01
2019-05-12T12:20:56.653Z,42.90
2019-05-12T12:21:50.986Z,46.82
2019-05-12T12:22:51.185Z,46.39
2019-05-12T12:23:50.369Z,46.59
2019-05-12T12:24:50.544Z,47.20
2019-05-12T12:25:50.767Z,46.64
2019-05-12T12:26:53.603Z,48.55
2019-05-12T12:27:53.561Z,45.96
2019-05-12T12:28:51.282Z,45.51
2019-05-12T12:29:51.446Z,46.95
2019-05-12T12:30:55.145Z,46.78
2019-05-12T12:31:52.805Z,45.03
2019-05-12T12:32:56.677Z,47.34
2019-05-12T12:33:54.129Z,46.09
2019-05-12T12:34:54.424Z,45.89
2019-05-12T12:35:56.620Z,46.17
2019-05-12T12:36:54.736Z,46.65
2019-05-12T12:37:54.223Z,43.37
2019-05-12T12:38:54.106Z,46.44
2019-05-12T12:39:53.658Z,46.92
2019-05-12T12:40:54.535Z,44.42
2019-05-12T12:41:59.690Z,42.35
2019-05-12T12:42:55.927Z,38.60
2019-05-12T12:43:54.238Z,38.30
2019-05-12T12:44:58.887Z,39.88
2019-05-12T12:45:56.299Z,39.92
2019-05-12T12:46:59.974Z,40.54
2019-05-12T12:47:56.583Z,39.44
2019-05-12T12:48:54.707Z,42.52
2019-05-12T12:49:54.868Z,43.87
2019-05-12T12:50:55.056Z,41.77
2019-05-12T12:51:55.237Z,43.55
2019-05-12T12:52:55.454Z,46.88
2019-05-12T12:53:55.666Z,46.19
2019-05-12T12:54:59.333Z,45.76